Time;durP1;ratioP1;P1;durP2;ratioP2;P2;SDS_P1;SDS_P2;PMS_P1;PMS_P2;Temp;Humidity;BMP_temperature;BMP_pressure;BME280_temperature;BME280_humidity;BME280_pressure;Samples;Min_cycle;Max_cycle;Signal;HPM_P1;HPM_P2
2023/10/15 00:00:13;;;;;;;4.65;1.10;;;7.20;99.90;;;;;;5084916;28;20051;-72
2023/10/15 00:02:44;;;;;;;2.42;0.80;;;7.20;99.90;;;;;;5065413;28;20413;-64
2023/10/15 00:05:20;;;;;;;4.97;1.00;;;7.20;99.90;;;;;;5079021;28;20044;-63
2023/10/15 00:07:47;;;;;;;9.77;1.42;;;7.20;99.90;;;;;;5098701;28;20047;-64
2023/10/15 00:10:25;;;;;;;5.45;0.80;;;7.20;99.90;;;;;;5084608;28;20414;-64
2023/10/15 00:12:52;;;;;;;2.72;0.80;;;7.20;99.90;;;;;;5088940;28;20050;-64
2023/10/15 00:15:19;;;;;;;10.35;1.60;;;7.30;99.90;;;;;;5086574;28;20040;-78
2023/10/15 00:17:50;;;;;;;3.65;1.05;;;7.40;99.90;;;;;;5103435;28;20087;-63
2023/10/15 00:20:18;;;;;;;4.60;0.93;;;7.30;99.90;;;;;;5065581;28;20080;-63
2023/10/15 00:22:45;;;;;;;2.05;0.45;;;7.30;99.90;;;;;;5082126;28;20052;-82
2023/10/15 00:25:13;;;;;;;5.35;0.82;;;7.30;99.90;;;;;;5095136;28;20130;-85
2023/10/15 00:27:43;;;;;;;1.95;1.02;;;7.30;99.90;;;;;;5072754;28;20035;-63
2023/10/15 00:30:18;;;;;;;5.80;0.65;;;7.20;99.90;;;;;;5089823;28;20087;-84
2023/10/15 00:32:45;;;;;;;4.78;0.75;;;7.20;99.90;;;;;;5069176;28;20055;-63
2023/10/15 00:35:21;;;;;;;3.38;0.70;;;7.20;99.90;;;;;;5084608;28;20127;-81
2023/10/15 00:37:57;;;;;;;1.27;0.57;;;7.10;99.90;;;;;;5064504;28;20549;-63
2023/10/15 00:40:25;;;;;;;2.15;0.63;;;7.10;99.90;;;;;;5108265;28;20047;-63
2023/10/15 00:42:51;;;;;;;1.67;0.50;;;7.00;99.90;;;;;;5069845;28;20052;-63
2023/10/15 00:45:18;;;;;;;6.72;0.50;;;7.00;99.90;;;;;;5093043;28;20473;-63
2023/10/15 00:47:51;;;;;;;2.05;0.80;;;6.90;99.90;;;;;;5091217;28;20051;-64
2023/10/15 00:50:18;;;;;;;3.72;0.95;;;7.00;99.90;;;;;;5100417;28;20049;-63
2023/10/15 00:52:44;;;;;;;2.97;0.80;;;6.90;99.90;;;;;;5060599;28;20051;-78
2023/10/15 00:55:19;;;;;;;6.72;0.90;;;6.90;99.90;;;;;;5087294;28;20486;-63
2023/10/15 00:57:47;;;;;;;3.30;0.68;;;6.90;99.90;;;;;;5080910;28;20058;-63
2023/10/15 01:03:03;;;;;;;2.38;0.68;;;6.90;99.90;;;;;;5084451;28;20059;-63
2023/10/15 01:05:34;;;;;;;5.75;0.90;;;6.90;99.90;;;;;;5081400;28;20115;-63
2023/10/15 01:08:04;;;;;;;1.65;0.82;;;6.90;99.90;;;;;;5087087;28;20063;-64
2023/10/15 01:10:39;;;;;;;2.75;0.85;;;6.90;99.90;;;;;;5070411;28;20052;-69
2023/10/15 01:13:21;;;;;;;7.30;0.82;;;6.90;99.90;;;;;;5078339;28;20039;-64
2023/10/15 01:15:52;;;;;;;4.95;1.08;;;6.90;99.90;;;;;;5078464;28;20048;-63
2023/10/15 01:18:17;;;;;;;3.50;1.00;;;6.90;99.90;;;;;;5083865;28;20043;-63
2023/10/15 01:20:43;;;;;;;6.78;1.00;;;7.00;99.90;;;;;;5083981;28;20394;-63
2023/10/15 01:23:28;;;;;;;3.65;1.13;;;7.00;99.90;;;;;;5077190;28;20047;-64
2023/10/15 01:25:57;;;;;;;4.50;1.23;;;7.00;99.90;;;;;;5070440;28;20135;-64
2023/10/15 01:28:32;;;;;;;4.03;0.68;;;7.00;99.90;;;;;;5086103;28;20064;-64
2023/10/15 01:31:02;;;;;;;5.60;1.20;;;6.90;99.90;;;;;;5064670;28;20128;-64
2023/10/15 01:33:30;;;;;;;4.80;0.90;;;7.00;99.90;;;;;;5072221;28;20059;-64
2023/10/15 01:36:06;;;;;;;4.78;0.73;;;7.00;99.90;;;;;;5087789;28;20056;-63
2023/10/15 01:38:34;;;;;;;4.07;0.60;;;7.00;99.90;;;;;;5079653;28;20435;-63
2023/10/15 01:41:04;;;;;;;5.78;0.80;;;7.00;99.90;;;;;;5087522;28;20545;-63
2023/10/15 01:43:32;;;;;;;3.28;1.02;;;7.00;99.90;;;;;;5079380;28;20494;-63
2023/10/15 01:46:00;;;;;;;0.90;0.38;;;7.00;99.90;;;;;;5086197;28;20095;-63
2023/10/15 01:48:30;;;;;;;2.53;0.60;;;7.10;99.90;;;;;;5084210;28;20131;-63
2023/10/15 01:51:06;;;;;;;0.88;0.30;;;7.10;99.90;;;;;;5079415;28;20502;-63
2023/10/15 01:53:39;;;;;;;5.43;0.63;;;7.10;99.90;;;;;;5069139;28;20040;-86
2023/10/15 01:56:07;;;;;;;0.88;0.43;;;7.00;99.90;;;;;;5086623;28;20101;-63
2023/10/15 01:58:32;;;;;;;1.20;0.65;;;7.00;99.90;;;;;;5057870;28;20050;-63
2023/10/15 02:01:20;;;;;;;3.28;0.70;;;7.00;99.90;;;;;;5087310;28;20043;-76
2023/10/15 02:03:47;;;;;;;1.98;0.25;;;6.90;99.90;;;;;;5068107;28;20155;-63
2023/10/15 02:06:16;;;;;;;1.02;0.40;;;6.90;99.90;;;;;;5083023;28;20047;-62
2023/10/15 02:08:45;;;;;;;2.17;0.40;;;6.90;99.90;;;;;;5076704;28;20398;-62
2023/10/15 02:11:16;;;;;;;0.77;0.28;;;6.90;99.90;;;;;;5092694;28;20051;-80
2023/10/15 02:13:47;;;;;;;1.42;0.40;;;6.90;99.90;;;;;;5108189;28;20039;-63
2023/10/15 02:16:17;;;;;;;1.45;0.38;;;6.80;99.90;;;;;;5091632;28;20046;-63
2023/10/15 02:18:49;;;;;;;0.98;0.40;;;6.80;99.90;;;;;;5099596;28;20097;-62
2023/10/15 02:21:19;;;;;;;0.60;0.32;;;6.80;99.90;;;;;;5105480;28;20129;-63
2023/10/15 02:23:51;;;;;;;2.67;0.60;;;6.90;99.90;;;;;;5104118;28;20466;-63
2023/10/15 02:26:30;;;;;;;1.58;0.52;;;6.90;99.90;;;;;;5082645;28;20118;-63
2023/10/15 02:29:05;;;;;;;1.08;0.50;;;6.80;99.90;;;;;;5075984;28;20043;-63
2023/10/15 02:31:31;;;;;;;2.78;0.20;;;6.90;99.90;;;;;;5110157;28;20045;-63
2023/10/15 02:33:57;;;;;;;5.68;0.93;;;6.90;99.90;;;;;;5058494;28;20039;-62
2023/10/15 02:36:25;;;;;;;2.78;0.80;;;6.90;99.90;;;;;;5092780;28;20089;-62
2023/10/15 02:38:56;;;;;;;3.85;0.75;;;7.00;99.90;;;;;;5099313;28;20055;-62
2023/10/15 02:41:25;;;;;;;;;;;7.00;99.90;;;;;;5111608;28;20048;-62
2023/10/15 02:43:54;;;;;;;3.45;0.57;;;7.00;99.90;;;;;;5102592;28;19923;-85
2023/10/15 02:48:57;;;;;;;4.85;0.88;;;7.20;99.90;;;;;;5090159;28;20118;-83
2023/10/15 02:51:23;;;;;;;6.07;0.68;;;7.20;99.90;;;;;;5101526;28;20123;-79
2023/10/15 02:54:03;;;;;;;3.60;0.52;;;7.30;99.90;;;;;;5111604;28;20032;-63
2023/10/15 02:56:29;;;;;;;5.97;1.13;;;7.30;99.90;;;;;;5110024;28;20046;-83
2023/10/15 02:58:54;;;;;;;4.32;0.80;;;7.40;99.90;;;;;;5082776;28;20043;-63
2023/10/15 03:01:20;;;;;;;4.75;0.57;;;7.40;99.90;;;;;;5088522;28;20043;-63
2023/10/15 03:03:50;;;;;;;3.33;0.45;;;7.40;99.90;;;;;;5090675;28;20032;-62
2023/10/15 03:06:28;;;;;;;3.28;0.57;;;7.40;99.90;;;;;;5072206;28;20081;-62
2023/10/15 03:08:56;;;;;;;1.80;0.98;;;7.50;99.90;;;;;;5087164;28;20504;-62
2023/10/15 03:11:23;;;;;;;2.25;0.47;;;7.50;99.90;;;;;;5097841;28;20050;-62
2023/10/15 03:13:53;;;;;;;2.28;0.70;;;7.50;99.90;;;;;;5110174;28;20038;-62
2023/10/15 03:16:30;;;;;;;1.65;0.50;;;7.50;99.90;;;;;;5074774;28;20077;-62
2023/10/15 03:18:57;;;;;;;3.42;0.68;;;7.50;99.90;;;;;;5105425;28;20485;-62
2023/10/15 03:21:26;;;;;;;0.68;0.20;;;7.50;99.90;;;;;;5089806;28;20056;-78
2023/10/15 03:23:55;;;;;;;2.55;0.60;;;7.40;99.90;;;;;;5093453;28;20059;-62
2023/10/15 03:26:24;;;;;;;1.17;0.43;;;7.40;99.90;;;;;;5104042;28;20482;-79
2023/10/15 03:28:51;;;;;;;3.17;0.40;;;7.40;99.90;;;;;;5101957;28;20047;-84
2023/10/15 03:31:23;;;;;;;6.45;0.52;;;7.30;99.90;;;;;;5091933;28;20056;-62
2023/10/15 03:42:09;;;;;;;3.60;0.90;;;7.20;99.90;;;;;;5088764;28;20547;-85
2023/10/15 03:44:43;;;;;;;11.90;0.95;;;7.20;99.90;;;;;;5104081;28;20058;-63
2023/10/15 03:47:09;;;;;;;2.00;0.50;;;7.20;99.90;;;;;;5073806;28;20050;-67
2023/10/15 03:49:36;;;;;;;6.22;1.23;;;7.10;99.90;;;;;;5109808;28;20043;-84
2023/10/15 03:52:08;;;;;;;5.80;0.68;;;7.10;99.90;;;;;;5067131;28;20035;-63
2023/10/15 03:54:37;;;;;;;1.73;0.75;;;7.10;99.90;;;;;;5075948;28;20044;-62
2023/10/15 03:57:06;;;;;;;2.78;0.60;;;7.00;99.90;;;;;;5107730;28;20039;-62
2023/10/15 03:59:42;;;;;;;1.92;0.38;;;7.00;99.90;;;;;;5109517;28;20085;-63
2023/10/15 04:02:11;;;;;;;3.30;0.55;;;7.10;99.90;;;;;;5101998;28;20079;-63
2023/10/15 04:04:38;;;;;;;2.33;0.40;;;7.10;99.90;;;;;;5108314;28;20401;-62
2023/10/15 04:07:12;;;;;;;5.40;0.68;;;7.10;99.90;;;;;;5110125;28;20048;-63
2023/10/15 04:09:38;;;;;;;1.88;0.38;;;7.10;99.90;;;;;;5101170;28;20052;-63
2023/10/15 04:12:06;;;;;;;3.13;0.50;;;7.00;99.90;;;;;;5098459;28;20047;-63
2023/10/15 04:14:34;;;;;;;4.72;0.73;;;7.10;99.90;;;;;;5081878;28;20086;-62
2023/10/15 04:17:00;;;;;;;4.05;0.40;;;7.10;99.90;;;;;;5101891;28;20104;-64
2023/10/15 04:19:27;;;;;;;0.30;0.25;;;7.10;99.90;;;;;;5108925;28;20040;-63
2023/10/15 04:21:59;;;;;;;1.10;0.22;;;7.10;99.90;;;;;;5089467;28;20051;-81
2023/10/15 04:24:36;;;;;;;0.77;0.32;;;7.00;99.90;;;;;;5054091;28;20046;-77
2023/10/15 04:27:06;;;;;;;0.45;0.25;;;6.90;99.90;;;;;;5108113;28;20069;-64
2023/10/15 04:29:34;;;;;;;;;;;7.00;99.90;;;;;;5109378;28;20043;-63
2023/10/15 04:32:09;;;;;;;2.25;0.52;;;6.90;99.90;;;;;;5098190;28;19920;-87
2023/10/15 04:34:36;;;;;;;0.90;0.32;;;6.80;99.90;;;;;;5073039;28;20044;-63
2023/10/15 04:37:16;;;;;;;1.23;0.28;;;6.80;99.90;;;;;;5109144;28;20406;-63
2023/10/15 04:39:55;;;;;;;3.30;0.50;;;6.80;99.90;;;;;;5100912;28;20131;-63
2023/10/15 04:42:28;;;;;;;1.20;0.13;;;6.70;99.90;;;;;;5091109;28;20051;-63
2023/10/15 04:44:53;;;;;;;1.20;0.25;;;6.70;99.90;;;;;;5089205;28;20859;-62
2023/10/15 04:47:28;;;;;;;2.90;0.63;;;6.70;99.90;;;;;;5108652;28;20047;-63
2023/10/15 04:49:57;;;;;;;0.47;0.20;;;6.70;99.90;;;;;;5108602;28;20047;-63
2023/10/15 04:52:24;;;;;;;3.25;0.63;;;6.70;99.90;;;;;;5107220;28;20489;-62
2023/10/15 04:54:55;;;;;;;1.33;0.30;;;6.60;99.90;;;;;;5093394;28;20127;-63
2023/10/15 04:57:21;;;;;;;7.22;0.70;;;6.50;99.90;;;;;;5107315;28;20486;-63
2023/10/15 04:59:47;;;;;;;2.17;0.40;;;6.60;99.90;;;;;;5108413;28;20488;-75
2023/10/15 05:02:12;;;;;;;2.13;0.47;;;6.50;99.90;;;;;;5082691;28;20043;-84
2023/10/15 05:04:38;;;;;;;3.03;0.30;;;6.60;99.90;;;;;;5100557;28;20486;-62
2023/10/15 05:07:05;;;;;;;0.20;0.15;;;6.60;99.90;;;;;;5089758;28;20039;-63
2023/10/15 05:09:31;;;;;;;0.75;0.32;;;6.60;99.90;;;;;;5101134;28;20431;-63
2023/10/15 05:11:59;;;;;;;1.65;0.30;;;6.60;99.90;;;;;;5080748;28;20044;-63
2023/10/15 05:14:25;;;;;;;1.25;0.20;;;6.60;99.90;;;;;;5105481;28;20547;-86
2023/10/15 05:16:51;;;;;;;2.67;0.60;;;6.60;99.90;;;;;;5108286;28;20137;-62
2023/10/15 05:19:17;;;;;;;1.25;0.32;;;6.60;99.90;;;;;;5106853;28;20394;-86
2023/10/15 05:21:46;;;;;;;1.77;0.47;;;6.70;99.90;;;;;;5090165;28;20126;-63
2023/10/15 05:24:18;;;;;;;0.37;0.33;;;6.60;99.90;;;;;;5105240;28;20047;-83
2023/10/15 05:26:50;;;;;;;1.27;0.55;;;6.70;99.90;;;;;;5104534;28;20081;-63
2023/10/15 05:29:15;;;;;;;4.32;0.68;;;6.60;99.90;;;;;;5102999;28;20440;-63
2023/10/15 05:31:42;;;;;;;3.85;0.50;;;6.70;99.90;;;;;;5105241;28;20095;-62
2023/10/15 05:34:08;;;;;;;1.10;0.20;;;6.70;99.90;;;;;;5094009;28;20065;-63
2023/10/15 05:36:37;;;;;;;4.55;0.63;;;6.70;99.90;;;;;;5100415;28;20614;-63
2023/10/15 05:39:08;;;;;;;3.40;0.35;;;6.70;99.90;;;;;;5078617;28;20041;-63
2023/10/15 05:41:34;;;;;;;0.30;0.20;;;6.80;99.90;;;;;;5107329;28;20072;-62
2023/10/15 05:44:01;;;;;;;1.08;0.40;;;6.70;99.90;;;;;;5098667;28;20502;-63
2023/10/15 05:46:27;;;;;;;7.10;0.88;;;6.80;99.90;;;;;;5060447;28;20067;-63
2023/10/15 05:48:54;;;;;;;8.20;0.90;;;6.80;99.90;;;;;;5093235;28;20040;-62
2023/10/15 05:51:22;;;;;;;1.55;0.40;;;6.90;99.90;;;;;;5092012;28;20063;-64
2023/10/15 05:53:48;;;;;;;2.60;0.73;;;6.90;99.90;;;;;;5099268;28;20893;-70
2023/10/15 05:56:14;;;;;;;4.20;0.95;;;6.90;99.90;;;;;;5085225;28;20047;-63
2023/10/15 05:58:40;;;;;;;1.75;0.40;;;7.00;99.90;;;;;;5102506;28;20031;-65
2023/10/15 06:01:05;;;;;;;11.20;0.75;;;7.00;99.90;;;;;;5078734;28;20047;-63
2023/10/15 06:03:31;;;;;;;4.15;0.90;;;7.00;99.90;;;;;;5108872;28;20464;-63
2023/10/15 06:05:57;;;;;;;5.25;0.65;;;7.10;99.90;;;;;;5102161;28;20041;-63
2023/10/15 06:08:23;;;;;;;2.33;0.40;;;7.10;99.90;;;;;;5104103;28;20057;-63
2023/10/15 06:10:49;;;;;;;2.38;0.75;;;7.20;99.90;;;;;;5095903;28;20114;-64
2023/10/15 06:13:16;;;;;;;6.03;0.52;;;7.20;99.90;;;;;;5112396;28;20185;-80
2023/10/15 06:15:42;;;;;;;4.85;0.35;;;7.20;99.90;;;;;;5110260;28;20545;-80
2023/10/15 06:18:09;;;;;;;2.17;0.30;;;7.30;99.90;;;;;;5066777;28;20048;-73
2023/10/15 06:20:34;;;;;;;2.05;0.50;;;7.30;99.90;;;;;;5102402;28;20056;-63
2023/10/15 06:23:04;;;;;;;0.60;0.43;;;7.20;99.90;;;;;;5090506;28;20048;-63
2023/10/15 06:25:30;;;;;;;1.88;0.60;;;7.30;99.90;;;;;;5084558;28;20036;-71
2023/10/15 06:27:56;;;;;;;6.90;0.90;;;7.20;99.90;;;;;;5100197;28;20053;-63
2023/10/15 06:30:21;;;;;;;4.50;0.80;;;7.30;99.90;;;;;;5111520;28;20080;-63
2023/10/15 06:32:49;;;;;;;2.83;0.60;;;7.30;99.90;;;;;;5085276;28;20048;-63
2023/10/15 06:35:21;;;;;;;6.20;0.75;;;7.40;99.90;;;;;;5091401;28;20055;-78
2023/10/15 06:37:48;;;;;;;6.40;1.52;;;7.40;99.90;;;;;;5066371;28;20052;-63
2023/10/15 06:40:15;;;;;;;3.40;0.60;;;7.40;99.90;;;;;;5060109;28;20048;-72
2023/10/15 06:42:44;;;;;;;0.98;0.30;;;7.40;99.90;;;;;;5090619;28;20044;-62
2023/10/15 06:45:10;;;;;;;1.88;0.40;;;7.40;99.90;;;;;;5088206;28;20044;-63
2023/10/15 06:47:37;;;;;;;1.58;0.35;;;7.40;99.90;;;;;;5091174;28;20580;-63
2023/10/15 06:50:07;;;;;;;3.55;0.50;;;7.30;99.90;;;;;;5087236;28;20039;-79
2023/10/15 06:52:41;;;;;;;0.45;0.15;;;7.30;99.90;;;;;;5091205;28;20048;-63
2023/10/15 06:55:08;;;;;;;2.22;0.60;;;7.30;99.90;;;;;;5089688;28;20101;-63
2023/10/15 06:57:38;;;;;;;1.65;0.20;;;7.20;99.90;;;;;;5086926;28;20424;-63
2023/10/15 07:00:09;;;;;;;0.10;0.10;;;7.20;99.90;;;;;;5089021;28;20081;-83
2023/10/15 07:02:34;;;;;;;;;;;7.20;99.90;;;;;;5086565;28;20071;-63
2023/10/15 07:05:01;;;;;;;3.17;0.50;;;7.10;99.90;;;;;;5058993;28;20520;-78
2023/10/15 07:07:28;;;;;;;1.23;0.20;;;7.10;99.90;;;;;;5064553;28;20044;-63
2023/10/15 07:09:54;;;;;;;2.20;0.25;;;7.10;99.90;;;;;;5090384;28;20047;-63
2023/10/15 07:12:20;;;;;;;2.40;0.30;;;7.00;99.90;;;;;;5092618;28;20105;-80
2023/10/15 07:14:49;;;;;;;5.05;0.32;;;7.00;99.90;;;;;;5089599;28;20075;-63
2023/10/15 07:17:17;;;;;;;0.55;0.20;;;7.00;99.90;;;;;;5088877;28;20076;-69
2023/10/15 07:19:43;;;;;;;0.93;0.30;;;7.10;99.90;;;;;;5080755;28;20496;-86
2023/10/15 07:22:09;;;;;;;0.75;0.28;;;7.20;99.90;;;;;;5087020;28;20110;-62
2023/10/15 07:24:35;;;;;;;2.92;0.52;;;7.20;99.90;;;;;;5084618;28;20039;-64
2023/10/15 07:27:04;;;;;;;0.57;0.30;;;7.30;99.90;;;;;;5083948;28;20043;-81
2023/10/15 07:29:30;;;;;;;0.30;0.20;;;7.40;99.90;;;;;;5089950;28;20076;-62
2023/10/15 07:31:56;;;;;;;0.57;0.22;;;7.50;99.90;;;;;;5076349;28;20040;-63
2023/10/15 07:34:26;;;;;;;0.68;0.22;;;7.70;99.90;;;;;;5083855;28;20105;-62
2023/10/15 07:36:56;;;;;;;2.92;0.38;;;7.90;99.90;;;;;;5079010;28;20056;-79
2023/10/15 07:39:23;;;;;;;2.17;0.50;;;8.10;99.90;;;;;;5089903;28;20048;-62
2023/10/15 07:41:48;;;;;;;2.78;0.45;;;8.30;99.90;;;;;;5087937;28;20079;-79
2023/10/15 07:44:15;;;;;;;1.23;0.40;;;8.60;99.90;;;;;;5087852;28;20520;-62
2023/10/15 07:46:42;;;;;;;1.17;0.10;;;8.90;99.90;;;;;;5076627;28;20397;-62
2023/10/15 07:49:10;;;;;;;1.65;0.40;;;9.00;99.90;;;;;;5080447;28;20044;-82
2023/10/15 07:51:36;;;;;;;4.93;0.82;;;9.00;99.90;;;;;;5070947;28;20072;-62
2023/10/15 07:54:03;;;;;;;2.67;0.57;;;8.80;99.90;;;;;;5072469;28;20079;-63
2023/10/15 07:56:29;;;;;;;3.25;1.00;;;8.60;99.90;;;;;;5086388;28;20040;-64
2023/10/15 07:58:55;;;;;;;2.30;0.47;;;8.30;99.90;;;;;;5087431;28;20055;-63
2023/10/15 08:01:20;;;;;;;7.03;0.80;;;7.90;99.90;;;;;;5095534;28;20048;-83
2023/10/15 08:03:46;;;;;;;2.67;0.50;;;7.60;99.90;;;;;;5055565;28;20040;-64
2023/10/15 08:06:12;;;;;;;3.53;0.65;;;7.50;99.90;;;;;;5095118;28;20104;-63
2023/10/15 08:08:37;;;;;;;5.68;0.55;;;7.40;99.90;;;;;;5066150;28;20082;-63
2023/10/15 08:11:03;;;;;;;2.97;0.40;;;7.40;99.90;;;;;;5093272;28;20075;-63
2023/10/15 08:13:29;;;;;;;5.80;0.80;;;7.40;99.90;;;;;;5091793;28;20047;-63
2023/10/15 08:15:55;;;;;;;4.82;0.60;;;7.30;99.90;;;;;;5107948;28;20527;-63
2023/10/15 08:18:20;;;;;;;7.85;0.70;;;7.30;99.90;;;;;;5094051;28;20433;-82
2023/10/15 08:20:46;;;;;;;6.25;0.85;;;7.40;99.90;;;;;;5089434;28;20414;-64
2023/10/15 08:23:13;;;;;;;2.42;0.47;;;7.40;99.90;;;;;;5069462;28;20062;-85
2023/10/15 08:25:39;;;;;;;11.70;1.13;;;7.50;99.90;;;;;;5094521;28;20055;-63
2023/10/15 08:28:05;;;;;;;5.40;1.10;;;7.50;99.90;;;;;;5094904;28;20031;-63
2023/10/15 08:30:32;;;;;;;5.15;0.73;;;7.40;99.90;;;;;;5109115;28;20043;-63
2023/10/15 08:32:58;;;;;;;2.75;0.35;;;7.30;99.90;;;;;;5094736;28;20072;-64
2023/10/15 08:35:24;;;;;;;2.15;0.50;;;7.30;99.90;;;;;;5094433;28;20082;-66
2023/10/15 08:37:50;;;;;;;6.13;0.88;;;7.20;99.90;;;;;;5083197;28;20084;-63
2023/10/15 08:40:17;;;;;;;3.65;0.70;;;7.20;99.90;;;;;;5083396;28;20131;-63
2023/10/15 08:43:18;;;;;;;4.35;0.80;;;7.10;99.90;;;;;;5060051;28;20094;-64
2023/10/15 08:45:45;;;;;;;4.15;1.00;;;7.10;99.90;;;;;;5043595;28;20135;-64
2023/10/15 08:48:12;;;;;;;3.15;0.77;;;7.10;99.90;;;;;;5083395;28;20489;-63
2023/10/15 08:50:39;;;;;;;2.42;0.28;;;7.10;99.90;;;;;;5078050;28;20554;-64
2023/10/15 08:53:07;;;;;;;3.00;0.65;;;7.10;99.90;;;;;;5070139;28;20054;-63
2023/10/15 08:55:34;;;;;;;3.45;1.45;;;7.20;99.90;;;;;;5086831;28;20484;-63
2023/10/15 08:58:00;;;;;;;4.93;0.77;;;7.20;99.90;;;;;;5087986;28;20048;-63
2023/10/15 09:00:26;;;;;;;2.78;0.52;;;7.40;99.90;;;;;;5067991;28;20055;-63
2023/10/15 09:03:01;;;;;;;2.63;0.55;;;7.60;99.90;;;;;;5087804;28;20064;-63
2023/10/15 09:05:30;;;;;;;5.70;0.47;;;7.70;99.90;;;;;;5088214;28;20051;-80
2023/10/15 09:07:56;;;;;;;2.63;0.50;;;7.90;99.90;;;;;;5068473;28;20056;-63
2023/10/15 09:10:22;;;;;;;4.13;0.70;;;8.00;99.90;;;;;;5069420;28;20071;-63
2023/10/15 09:12:49;;;;;;;2.58;0.60;;;8.20;99.90;;;;;;5096337;28;20367;-63
2023/10/15 09:15:16;;;;;;;2.75;0.45;;;8.50;99.90;;;;;;5092355;28;20114;-63
2023/10/15 09:18:00;;;;;;;3.33;0.50;;;8.70;99.90;;;;;;5075219;28;20075;-86
2023/10/15 09:20:27;;;;;;;2.28;0.57;;;8.80;99.90;;;;;;5079166;28;20050;-63
2023/10/15 09:22:58;;;;;;;3.42;0.52;;;8.80;99.90;;;;;;5075255;28;20073;-63
2023/10/15 09:25:29;;;;;;;2.75;0.60;;;8.80;99.90;;;;;;5078408;28;20036;-62
2023/10/15 09:27:56;;;;;;;4.00;0.70;;;9.00;99.90;;;;;;5100616;28;20036;-85
2023/10/15 09:30:26;;;;;;;5.55;0.70;;;9.10;99.90;;;;;;5081691;28;20166;-63
2023/10/15 09:32:52;;;;;;;;;;;9.20;99.90;;;;;;5032681;28;20087;-64
2023/10/15 09:35:20;;;;;;;16.60;1.08;;;9.20;99.90;;;;;;5080511;28;19978;-80
2023/10/15 09:37:46;;;;;;;2.05;0.55;;;9.40;99.90;;;;;;5081286;28;20399;-63
2023/10/15 09:40:19;;;;;;;8.20;1.13;;;9.50;99.90;;;;;;5101763;28;20036;-62
2023/10/15 09:42:49;;;;;;;8.85;1.27;;;9.50;99.90;;;;;;5087770;28;20086;-62
2023/10/15 09:45:19;;;;;;;10.40;1.05;;;9.60;99.90;;;;;;5083352;28;20393;-63
2023/10/15 09:47:49;;;;;;;6.88;0.90;;;9.70;99.90;;;;;;5085173;28;20561;-62
2023/10/15 09:50:19;;;;;;;15.02;3.53;;;9.70;99.90;;;;;;5069136;28;20048;-62
2023/10/15 09:52:55;;;;;;;8.30;1.58;;;9.70;99.90;;;;;;5085536;28;20036;-62
2023/10/15 09:55:31;;;;;;;5.40;0.90;;;9.70;99.90;;;;;;5064485;28;20434;-83
2023/10/15 09:58:04;;;;;;;4.82;1.00;;;9.70;99.90;;;;;;5079869;28;20585;-62
2023/10/15 10:00:48;;;;;;;3.13;0.60;;;9.80;99.90;;;;;;5051186;28;20474;-62
2023/10/15 10:03:25;;;;;;;8.43;0.75;;;9.80;99.90;;;;;;5061013;28;20037;-62
2023/10/15 10:06:15;;;;;;;2.35;0.88;;;9.60;99.90;;;;;;5077928;28;20048;-63
2023/10/15 10:08:44;;;;;;;;;;;9.20;99.90;;;;;;5086450;28;20036;-64
2023/10/15 10:11:16;;;;;;;5.63;0.82;;;8.90;99.90;;;;;;5093146;28;20281;-65
2023/10/15 10:14:00;;;;;;;1.92;0.52;;;8.70;99.90;;;;;;5094873;28;20039;-63
2023/10/15 10:16:27;;;;;;;3.88;0.73;;;8.50;99.90;;;;;;5087929;28;20040;-64
2023/10/15 10:18:53;;;;;;;7.82;1.08;;;8.50;99.90;;;;;;5085972;28;20033;-63
2023/10/15 10:21:20;;;;;;;6.55;1.25;;;8.60;99.90;;;;;;5075483;28;20074;-63
2023/10/15 10:23:50;;;;;;;7.25;0.93;;;8.90;99.90;;;;;;5075295;28;20048;-63
2023/10/15 10:26:19;;;;;;;11.82;0.95;;;9.10;99.90;;;;;;5085748;28;20124;-63
2023/10/15 10:28:46;;;;;;;11.17;1.47;;;9.00;99.90;;;;;;5078260;28;20538;-63
2023/10/15 10:31:13;;;;;;;3.33;1.10;;;8.90;99.90;;;;;;5082762;28;20044;-63
2023/10/15 10:33:42;;;;;;;3.35;0.50;;;8.80;99.90;;;;;;5084273;28;20056;-63
2023/10/15 10:36:12;;;;;;;5.18;0.65;;;8.70;99.90;;;;;;5062861;28;20147;-63
2023/10/15 10:38:39;;;;;;;0.73;0.45;;;8.50;99.90;;;;;;5067018;28;20052;-63
2023/10/15 10:41:12;;;;;;;0.93;0.30;;;8.40;99.90;;;;;;5075064;28;20076;-64
2023/10/15 10:43:40;;;;;;;0.82;0.40;;;8.40;99.90;;;;;;5071535;28;20060;-63
2023/10/15 10:46:07;;;;;;;3.03;0.22;;;8.40;99.90;;;;;;5086472;28;20595;-63
2023/10/15 10:48:35;;;;;;;2.15;0.50;;;8.70;99.90;;;;;;5086599;28;20059;-63
2023/10/15 10:51:15;;;;;;;0.95;0.80;;;9.00;99.90;;;;;;5072916;28;20123;-63
2023/10/15 10:53:56;;;;;;;1.75;0.73;;;9.40;99.90;;;;;;5086474;28;20466;-63
2023/10/15 10:56:23;;;;;;;1.27;0.90;;;9.70;99.90;;;;;;5089188;28;20068;-63
2023/10/15 10:58:52;;;;;;;3.13;1.08;;;9.70;99.90;;;;;;5096702;28;20044;-63
2023/10/15 11:01:19;;;;;;;11.27;1.33;;;9.50;99.90;;;;;;5078330;28;20084;-63
2023/10/15 11:03:48;;;;;;;7.68;0.82;;;9.30;99.90;;;;;;5076883;28;20403;-63
2023/10/15 11:06:15;;;;;;;4.75;0.63;;;9.10;99.90;;;;;;5089706;28;20481;-63
2023/10/15 11:08:46;;;;;;;2.47;0.60;;;8.90;99.90;;;;;;5068689;28;20106;-83
2023/10/15 11:11:12;;;;;;;7.55;1.00;;;8.80;99.90;;;;;;5077961;28;20044;-63
2023/10/15 11:13:38;;;;;;;5.82;0.43;;;8.80;99.90;;;;;;5102026;28;20054;-63
2023/10/15 11:16:04;;;;;;;4.88;0.60;;;8.90;99.90;;;;;;5090673;28;20036;-63
2023/10/15 11:18:31;;;;;;;6.28;0.80;;;9.20;99.90;;;;;;5095294;28;20171;-83
2023/10/15 11:20:57;;;;;;;10.60;1.25;;;9.40;99.90;;;;;;5106808;28;20061;-62
2023/10/15 11:23:26;;;;;;;5.60;1.02;;;9.70;99.90;;;;;;5107317;28;20090;-62
2023/10/15 11:25:54;;;;;;;9.35;1.50;;;10.00;99.90;;;;;;5091794;28;20079;-62
2023/10/15 11:28:21;;;;;;;6.47;0.82;;;10.20;99.90;;;;;;5091702;28;20040;-62
2023/10/15 11:30:46;;;;;;;5.40;0.82;;;10.40;99.90;;;;;;5078468;28;20480;-62
2023/10/15 11:33:16;;;;;;;5.60;1.10;;;10.60;99.90;;;;;;5095930;28;20075;-62
2023/10/15 11:35:43;;;;;;;7.80;1.20;;;10.80;99.90;;;;;;5108350;28;20040;-62
2023/10/15 11:38:10;;;;;;;4.55;0.98;;;11.00;99.90;;;;;;5099086;28;20052;-62
2023/10/15 11:40:37;;;;;;;6.90;0.93;;;11.20;99.90;;;;;;5060171;28;20051;-62
2023/10/15 11:43:19;;;;;;;8.07;1.38;;;11.20;93.90;;;;;;5092420;28;20036;-62
2023/10/15 11:45:46;;;;;;;6.68;0.70;;;11.20;88.70;;;;;;5071179;28;20040;-63
2023/10/15 11:48:13;;;;;;;5.05;0.80;;;11.40;90.10;;;;;;5087083;28;20070;-63
2023/10/15 11:50:44;;;;;;;7.97;1.52;;;11.40;88.00;;;;;;5088838;28;20513;-62
2023/10/15 11:53:17;;;;;;;9.73;1.33;;;11.50;71.30;;;;;;5101115;28;20070;-62
2023/10/15 11:55:52;;;;;;;6.75;0.68;;;11.50;68.20;;;;;;5082346;28;20041;-63
2023/10/15 11:58:19;;;;;;;3.88;1.63;;;11.60;72.40;;;;;;5085640;28;20098;-61
2023/10/15 12:00:48;;;;;;;5.97;2.00;;;11.80;70.30;;;;;;5068398;28;20051;-62
2023/10/15 12:03:20;;;;;;;8.43;0.88;;;11.90;75.60;;;;;;5088109;28;20511;-62
2023/10/15 12:05:46;;;;;;;5.40;0.95;;;12.00;62.30;;;;;;5082891;28;20028;-62
2023/10/15 12:08:12;;;;;;;4.18;1.17;;;12.00;43.30;;;;;;5087507;28;20490;-62
2023/10/15 12:10:45;;;;;;;8.20;1.52;;;12.00;45.60;;;;;;5072710;28;20036;-86
2023/10/15 12:13:12;;;;;;;9.02;1.40;;;12.00;43.70;;;;;;5069989;28;20486;-62
2023/10/15 12:15:38;;;;;;;4.95;0.75;;;11.80;38.30;;;;;;5089469;28;20398;-62
2023/10/15 12:18:04;;;;;;;6.93;1.02;;;11.80;39.90;;;;;;5069993;28;20040;-62
2023/10/15 12:20:30;;;;;;;6.85;1.15;;;11.70;27.30;;;;;;5090724;28;20482;-81
2023/10/15 12:22:55;;;;;;;5.53;0.85;;;11.60;30.40;;;;;;5084455;28;20038;-62
2023/10/15 12:25:22;;;;;;;3.97;1.17;;;11.40;10.70;;;;;;5088692;28;20043;-62
2023/10/15 12:27:49;;;;;;;4.38;1.15;;;11.30;4.60;;;;;;5084030;28;20055;-62
2023/10/15 12:30:27;;;;;;;5.53;0.95;;;11.30;7.00;;;;;;5088932;28;20051;-62
2023/10/15 12:32:53;;;;;;;5.60;1.50;;;11.20;13.10;;;;;;5087749;28;20048;-62
2023/10/15 12:35:20;;;;;;;7.05;1.40;;;11.00;21.00;;;;;;5069711;28;20055;-63
2023/10/15 12:37:47;;;;;;;7.25;1.40;;;10.80;14.10;;;;;;5085564;28;21137;-77
2023/10/15 12:40:12;;;;;;;4.28;0.95;;;10.80;18.50;;;;;;5077068;28;20484;-82
2023/10/15 12:42:42;;;;;;;4.45;0.90;;;11.00;26.00;;;;;;5064027;28;20410;-62
2023/10/15 12:45:13;;;;;;;3.40;1.10;;;11.10;21.50;;;;;;5083834;28;20071;-86
2023/10/15 12:47:39;;;;;;;4.18;1.17;;;11.30;42.90;;;;;;5068019;28;20051;-63
2023/10/15 12:50:14;;;;;;;6.13;0.93;;;11.30;12.50;;;;;;5087500;28;20036;-62
2023/10/15 12:52:43;;;;;;;4.25;0.98;;;11.10;15.20;;;;;;5091810;28;20367;-62
2023/10/15 12:55:08;;;;;;;6.30;0.88;;;11.30;8.40;;;;;;5091054;28;20555;-62
2023/10/15 12:57:35;;;;;;;5.22;1.45;;;11.50;14.50;;;;;;5078839;28;20040;-62
2023/10/15 13:00:11;;;;;;;7.13;1.80;;;11.70;18.20;;;;;;5088409;28;20052;-62
2023/10/15 13:02:38;;;;;;;6.68;1.40;;;11.70;1.00;;;;;;5085797;28;20048;-62
2023/10/15 13:05:05;;;;;;;5.25;1.30;;;11.70;1.00;;;;;;5088439;28;20044;-78
2023/10/15 13:07:31;;;;;;;3.92;1.13;;;11.50;2.60;;;;;;5060226;28;20435;-61
2023/10/15 13:09:57;;;;;;;3.40;0.77;;;11.30;1.00;;;;;;5068283;28;20040;-62
2023/10/15 13:12:25;;;;;;;3.15;1.40;;;11.20;1.00;;;;;;5081033;28;20519;-62
2023/10/15 13:14:50;;;;;;;6.80;1.30;;;11.00;10.20;;;;;;5067530;28;20075;-62
2023/10/15 13:17:16;;;;;;;4.93;0.77;;;10.90;8.90;;;;;;5067135;28;20082;-62
2023/10/15 13:19:44;;;;;;;5.70;0.93;;;10.80;9.80;;;;;;5067633;28;20040;-62